Time;durP1;ratioP1;P1;durP2;ratioP2;P2;SDS_P1;SDS_P2;PMS_P1;PMS_P2;Temp;Humidity;BMP_temperature;BMP_pressure;BME280_temperature;BME280_humidity;BME280_pressure;Samples;Min_cycle;Max_cycle;Signal;HPM_P1;HPM_P2
2021/10/03 00:01:01;;;;;;;36.48;24.20;;;;;;;10.78;88.77;100669.79;1694237;83;25550;-56
2021/10/03 00:03:29;;;;;;;37.35;23.83;;;;;;;10.73;88.85;100663.92;1725337;83;27933;-56
2021/10/03 00:05:59;;;;;;;42.80;26.27;;;;;;;10.70;88.73;100663.72;1723588;83;25921;-56
2021/10/03 00:08:27;;;;;;;41.45;26.75;;;;;;;10.67;88.63;100669.16;1723721;83;25540;-58
2021/10/03 00:10:55;;;;;;;50.67;27.75;;;;;;;10.61;88.60;100666.33;1723591;83;25660;-56
2021/10/03 00:13:25;;;;;;;40.00;24.90;;;;;;;10.56;88.56;100663.16;1723687;83;25627;-58
2021/10/03 00:15:54;;;;;;;36.73;24.67;;;;;;;10.54;88.93;100662.66;1703075;82;27418;-56
2021/10/03 00:18:22;;;;;;;33.78;24.00;;;;;;;10.50;88.72;100659.49;1736691;82;27303;-58
2021/10/03 00:20:48;;;;;;;35.48;24.25;;;;;;;10.45;88.86;100654.45;1730611;82;25481;-57
2021/10/03 00:23:15;;;;;;;34.90;22.90;;;;;;;10.41;89.01;100665.59;1723675;83;25712;-57
2021/10/03 00:25:42;;;;;;;35.43;23.62;;;;;;;10.39;89.16;100660.24;1723848;82;25668;-58
2021/10/03 00:28:09;;;;;;;38.13;25.12;;;;;;;10.35;89.25;100664.09;1724534;82;27377;-58
2021/10/03 00:30:39;;;;;;;37.90;22.35;;;;;;;10.32;89.55;100663.86;1723617;82;25454;-59
2021/10/03 00:33:07;;;;;;;33.02;22.60;;;;;;;10.28;89.66;100664.45;1723609;83;25470;-57
2021/10/03 00:35:36;;;;;;;35.70;24.47;;;;;;;10.27;89.65;100668.80;1721696;82;25633;-59
2021/10/03 00:38:04;;;;;;;35.38;23.25;;;;;;;10.23;89.68;100674.53;1689722;84;25468;-56
2021/10/03 00:40:33;;;;;;;34.70;24.02;;;;;;;10.21;89.81;100677.53;1718494;83;27945;-56
2021/10/03 00:43:01;;;;;;;33.88;22.77;;;;;;;10.18;89.85;100680.85;1688245;85;34733;-55
2021/10/03 00:45:30;;;;;;;37.40;23.32;;;;;;;10.15;89.81;100680.61;1688154;85;25517;-57
2021/10/03 00:47:58;;;;;;;33.35;23.73;;;;;;;10.13;90.13;100684.17;1694285;83;25916;-57
2021/10/03 00:50:28;;;;;;;38.55;23.83;;;;;;;10.09;90.13;100680.70;1752096;81;25626;-57
2021/10/03 00:52:55;;;;;;;35.38;24.12;;;;;;;10.09;90.21;100683.41;1752157;81;27336;-56
2021/10/03 00:55:22;;;;;;;37.53;24.52;;;;;;;10.06;90.03;100682.67;1751969;81;25649;-57
2021/10/03 00:57:52;;;;;;;34.92;23.92;;;;;;;10.04;90.41;100675.38;1752065;81;25514;-56
2021/10/03 01:00:23;;;;;;;33.10;23.67;;;;;;;10.03;90.27;100689.22;1752153;81;25703;-55
2021/10/03 01:02:52;;;;;;;40.83;24.18;;;;;;;10.02;90.37;100682.20;1752141;81;25495;-57
2021/10/03 01:05:18;;;;;;;32.65;22.87;;;;;;;10.00;90.77;100681.14;1752048;81;27342;-56
2021/10/03 01:07:45;;;;;;;39.92;24.32;;;;;;;9.98;90.37;100683.34;1751936;81;25452;-56
2021/10/03 01:10:17;;;;;;;31.90;23.62;;;;;;;9.96;90.35;100683.36;1752009;81;25628;-56
2021/10/03 01:12:44;;;;;;;36.75;23.12;;;;;;;9.95;90.52;100679.08;1752089;81;25670;-56
2021/10/03 01:15:11;;;;;;;35.48;24.20;;;;;;;9.91;90.60;100672.91;1752041;81;25518;-56
2021/10/03 01:17:38;;;;;;;37.65;24.15;;;;;;;9.88;90.68;100673.48;1752047;81;27315;-58
2021/10/03 01:20:08;;;;;;;37.10;23.30;;;;;;;9.88;90.91;100675.39;1751932;81;27109;-57
2021/10/03 01:22:37;;;;;;;36.28;24.20;;;;;;;9.85;90.90;100674.07;1727443;81;25832;-57
2021/10/03 01:25:08;;;;;;;33.90;22.82;;;;;;;9.84;90.94;100677.06;1752127;81;25771;-59
2021/10/03 01:27:37;;;;;;;40.83;23.83;;;;;;;9.82;90.81;100678.70;1700178;84;25651;-57
2021/10/03 01:30:10;;;;;;;39.13;24.27;;;;;;;9.82;91.08;100672.51;1700287;83;27201;-57
2021/10/03 01:32:37;;;;;;;34.75;23.15;;;;;;;9.82;91.17;100671.95;1700095;84;25741;-56
2021/10/03 01:35:05;;;;;;;39.53;24.98;;;;;;;9.79;91.25;100664.45;1697972;84;25683;-57
2021/10/03 01:37:33;;;;;;;40.38;25.75;;;;;;;9.79;91.32;100664.98;1659767;86;25628;-56
2021/10/03 01:40:05;;;;;;;34.90;24.98;;;;;;;9.79;91.37;100662.28;1625043;86;25617;-56
2021/10/03 01:42:33;;;;;;;39.33;24.30;;;;;;;9.79;91.39;100664.98;1625141;88;28227;-56
2021/10/03 01:45:00;;;;;;;36.25;23.87;;;;;;;9.77;91.42;100663.13;1647212;86;25590;-56
2021/10/03 01:47:26;;;;;;;33.38;22.45;;;;;;;9.76;91.25;100668.30;1625022;88;25701;-58
2021/10/03 01:49:53;;;;;;;33.55;23.42;;;;;;;9.76;91.42;100669.66;1625058;88;25623;-56
2021/10/03 01:52:19;;;;;;;37.23;24.00;;;;;;;9.72;91.34;100670.23;1625044;88;25618;-56
2021/10/03 01:54:46;;;;;;;40.05;24.32;;;;;;;9.71;91.80;100668.61;1625053;88;27403;-56
2021/10/03 01:57:13;;;;;;;36.75;24.37;;;;;;;9.70;91.68;100666.20;1624968;88;25709;-56
2021/10/03 01:59:40;;;;;;;35.52;22.95;;;;;;;9.69;91.50;100660.56;1632611;87;25683;-56
2021/10/03 02:02:07;;;;;;;39.83;24.67;;;;;;;9.67;91.73;100656.80;1632920;87;25835;-57
2021/10/03 02:04:34;;;;;;;39.33;25.10;;;;;;;9.66;91.76;100654.39;1632979;87;25821;-57
2021/10/03 02:07:01;;;;;;;36.42;23.52;;;;;;;9.66;91.93;100657.89;1632954;87;27426;-56
2021/10/03 02:09:28;;;;;;;36.00;22.10;;;;;;;9.64;91.96;100653.89;1685618;84;25512;-56
2021/10/03 02:11:59;;;;;;;33.45;23.42;;;;;;;9.62;91.87;100648.78;1728139;83;25646;-56
2021/10/03 02:14:31;;;;;;;37.75;24.15;;;;;;;9.61;91.98;100648.52;1728294;83;25720;-56
2021/10/03 02:17:02;;;;;;;34.05;23.52;;;;;;;9.59;91.88;100645.31;1728341;83;25691;-57
2021/10/03 02:19:30;;;;;;;38.00;24.50;;;;;;;9.58;91.86;100630.19;1728315;83;27320;-56
2021/10/03 02:22:00;;;;;;;36.20;23.50;;;;;;;9.56;91.96;100624.84;1728195;83;25629;-56
2021/10/03 02:24:27;;;;;;;36.65;23.30;;;;;;;9.56;92.00;100632.95;1728403;83;25507;-56
2021/10/03 02:26:53;;;;;;;41.37;24.70;;;;;;;9.53;92.00;100628.39;1728206;83;25672;-55
2021/10/03 02:29:20;;;;;;;34.30;24.20;;;;;;;9.53;92.08;100632.97;1728291;83;25649;-55
2021/10/03 02:31:47;;;;;;;35.83;23.05;;;;;;;9.51;92.21;100633.27;1728245;83;27063;-56
2021/10/03 02:34:13;;;;;;;33.40;23.57;;;;;;;9.51;92.33;100634.61;1728242;83;25457;-56
2021/10/03 02:36:40;;;;;;;37.58;24.05;;;;;;;9.50;92.25;100634.38;1738176;81;25671;-55
2021/10/03 02:39:08;;;;;;;36.50;24.37;;;;;;;9.49;92.47;100634.66;1741804;81;25676;-56
2021/10/03 02:41:34;;;;;;;36.03;23.50;;;;;;;9.48;92.33;100630.34;1741924;82;25643;-56
2021/10/03 02:44:03;;;;;;;32.03;23.25;;;;;;;9.47;92.33;100630.91;1741846;82;27452;-57
2021/10/03 02:46:29;;;;;;;31.87;24.18;;;;;;;9.47;92.37;100624.16;1741844;82;25499;-56
2021/10/03 02:48:57;;;;;;;37.38;24.90;;;;;;;9.45;92.51;100629.05;1742023;82;25610;-55
2021/10/03 02:51:28;;;;;;;32.38;23.18;;;;;;;9.45;92.62;100631.75;1742009;82;26265;-55
2021/10/03 02:53:56;;;;;;;33.65;23.62;;;;;;;9.44;92.47;100629.34;1711504;82;25621;-57
2021/10/03 02:56:26;;;;;;;36.63;23.55;;;;;;;9.41;92.50;100626.66;1742031;82;28014;-56
2021/10/03 02:58:54;;;;;;;37.83;24.85;;;;;;;9.41;92.53;100625.87;1742059;81;25483;-55
2021/10/03 03:01:21;;;;;;;36.28;25.00;;;;;;;9.37;92.58;100617.55;1742046;81;25530;-55
2021/10/03 03:03:48;;;;;;;34.20;23.00;;;;;;;9.37;92.54;100615.41;1737248;82;25834;-60
2021/10/03 03:06:15;;;;;;;34.63;23.70;;;;;;;9.35;92.66;100616.50;1742087;81;25473;-57
2021/10/03 03:08:42;;;;;;;36.70;22.52;;;;;;;9.36;92.51;100618.64;1737288;82;28310;-56
2021/10/03 03:11:09;;;;;;;34.18;23.12;;;;;;;9.34;92.59;100622.19;1741973;81;25644;-56
2021/10/03 03:13:36;;;;;;;35.17;24.57;;;;;;;9.33;92.69;100616.52;1742007;82;25603;-56
2021/10/03 03:16:04;;;;;;;33.98;24.60;;;;;;;9.33;92.73;100621.92;1741996;82;25662;-57
2021/10/03 03:18:30;;;;;;;38.98;23.22;;;;;;;9.30;92.73;100616.57;1742064;81;25656;-57
2021/10/03 03:20:57;;;;;;;39.27;23.38;;;;;;;9.29;92.61;100618.20;1742041;82;27396;-56
2021/10/03 03:23:24;;;;;;;37.78;23.67;;;;;;;9.28;92.67;100614.72;1741900;81;25536;-56
2021/10/03 03:25:53;;;;;;;34.38;23.15;;;;;;;9.26;92.70;100616.91;1742022;82;25685;-56
2021/10/03 03:28:20;;;;;;;;;;;;;;;9.25;92.72;100622.59;1744529;81;25618;-56
2021/10/03 03:30:47;;;;;;;37.15;22.73;;;;;;;9.23;92.82;100628.28;1742070;81;25749;-56
2021/10/03 03:33:15;;;;;;;37.58;23.83;;;;;;;9.21;92.81;100621.56;1742045;81;27403;-56
2021/10/03 03:35:43;;;;;;;35.10;23.92;;;;;;;9.19;92.55;100617.01;1743819;81;25700;-56
2021/10/03 03:38:10;;;;;;;34.43;22.55;;;;;;;9.18;92.71;100619.44;1752145;81;25676;-56
2021/10/03 03:40:38;;;;;;;34.13;23.83;;;;;;;9.15;92.64;100614.88;1752043;81;26294;-56
2021/10/03 03:43:04;;;;;;;37.80;23.70;;;;;;;9.15;92.69;100616.79;1752140;81;25648;-58
2021/10/03 03:45:32;;;;;;;42.15;24.52;;;;;;;9.14;92.60;100617.88;1752189;81;26845;-56
2021/10/03 03:48:01;;;;;;;34.18;23.15;;;;;;;9.13;92.65;100614.94;1752013;81;25462;-56
2021/10/03 03:50:26;;;;;;;36.42;24.43;;;;;;;9.11;92.72;100615.22;1751877;81;25541;-57
2021/10/03 03:52:54;;;;;;;32.78;23.38;;;;;;;9.09;92.65;100615.24;1706175;83;25657;-57
2021/10/03 03:55:20;;;;;;;32.83;23.83;;;;;;;9.08;92.68;100622.55;1718565;83;25494;-61
2021/10/03 03:57:49;;;;;;;36.08;23.65;;;;;;;9.06;92.72;100627.96;1688218;85;27549;-58
2021/10/03 04:00:16;;;;;;;35.13;23.57;;;;;;;9.05;92.64;100618.28;1718725;83;25775;-58
2021/10/03 04:02:43;;;;;;;38.15;25.05;;;;;;;9.01;92.60;100611.31;1726286;83;25650;-58
2021/10/03 04:05:09;;;;;;;35.33;23.95;;;;;;;9.00;92.70;100614.30;1693976;83;26015;-58
2021/10/03 04:07:36;;;;;;;35.35;23.20;;;;;;;8.98;92.90;100609.19;1752090;81;25616;-58
2021/10/03 04:10:05;;;;;;;29.23;22.00;;;;;;;8.96;92.67;100611.38;1752067;81;27429;-57
2021/10/03 04:12:32;;;;;;;35.35;23.90;;;;;;;8.91;92.85;100612.24;1729350;81;33116;-56
2021/10/03 04:15:00;;;;;;;38.15;23.57;;;;;;;8.91;92.85;100612.24;1752130;81;25437;-56
2021/10/03 04:17:27;;;;;;;32.67;23.52;;;;;;;8.91;92.71;100612.80;1753831;81;26202;-58
2021/10/03 04:19:53;;;;;;;37.58;22.95;;;;;;;8.89;92.65;100608.25;1752066;81;25515;-57
2021/10/03 04:22:20;;;;;;;31.52;23.40;;;;;;;8.89;92.74;100609.59;1752059;81;27396;-58
2021/10/03 04:24:46;;;;;;;39.03;23.27;;;;;;;8.87;92.69;100615.27;1752086;81;25467;-57
2021/10/03 04:27:13;;;;;;;36.58;24.27;;;;;;;8.86;92.94;100608.82;1752089;81;25701;-57
2021/10/03 04:29:39;;;;;;;33.75;23.40;;;;;;;8.85;92.86;100612.04;1752001;81;25607;-57
2021/10/03 04:32:07;;;;;;;33.95;23.02;;;;;;;8.84;92.89;100614.50;1752072;81;25452;-57
2021/10/03 04:34:34;;;;;;;34.92;23.62;;;;;;;8.83;92.85;100609.39;1752036;81;27334;-56
2021/10/03 04:37:01;;;;;;;37.48;23.52;;;;;;;8.81;92.88;100607.53;1745630;81;25618;-55
2021/10/03 04:39:28;;;;;;;33.53;22.60;;;;;;;8.80;93.08;100608.06;1741947;82;25467;-57
2021/10/03 04:41:55;;;;;;;38.85;23.18;;;;;;;8.79;93.00;100603.77;1741932;82;26428;-56
2021/10/03 04:44:22;;;;;;;33.53;22.98;;;;;;;8.78;93.14;100612.42;1741935;82;25522;-56
2021/10/03 04:46:49;;;;;;;34.15;22.15;;;;;;;8.78;92.96;100615.12;1737118;82;27421;-55
2021/10/03 04:49:16;;;;;;;34.38;22.00;;;;;;;8.77;92.97;100612.16;1741886;81;25713;-57
2021/10/03 04:51:42;;;;;;;33.28;22.93;;;;;;;8.77;93.11;100611.36;1741960;82;25695;-56
2021/10/03 04:54:09;;;;;;;39.48;23.47;;;;;;;8.77;93.13;100610.01;1741856;82;25726;-56
2021/10/03 04:56:35;;;;;;;38.25;24.15;;;;;;;8.77;93.26;100620.80;1741950;82;25514;-57
2021/10/03 04:59:02;;;;;;;33.78;23.05;;;;;;;8.77;93.30;100617.55;1741909;81;27300;-56
2021/10/03 05:01:29;;;;;;;35.13;23.00;;;;;;;8.78;93.46;100619.16;1741190;81;25722;-56
2021/10/03 05:03:55;;;;;;;36.45;23.27;;;;;;;8.78;93.39;100616.99;1741908;82;25885;-56
2021/10/03 05:06:22;;;;;;;34.48;23.27;;;;;;;8.77;93.60;100615.41;1741876;82;25620;-56
2021/10/03 05:08:49;;;;;;;34.30;23.62;;;;;;;8.78;93.53;100615.12;1741907;82;25482;-57
2021/10/03 05:11:15;;;;;;;41.08;24.45;;;;;;;8.80;93.66;100618.84;1742007;81;27459;-56
2021/10/03 05:13:42;;;;;;;34.27;24.27;;;;;;;8.83;93.68;100623.67;1741836;81;25483;-56
2021/10/03 05:16:08;;;;;;;37.28;23.50;;;;;;;8.84;93.68;100619.89;1742038;82;25683;-56
2021/10/03 05:18:36;;;;;;;38.20;25.35;;;;;;;8.85;93.90;100617.99;1741924;81;25708;-58
2021/10/03 05:21:05;;;;;;;35.70;23.77;;;;;;;8.86;94.10;100623.66;1712716;82;25481;-57
2021/10/03 05:23:33;;;;;;;38.23;23.57;;;;;;;8.89;93.98;100625.78;1741505;82;27335;-56
2021/10/03 05:25:59;;;;;;;34.15;23.60;;;;;;;8.91;94.05;100629.78;1741847;82;25767;-57
2021/10/03 05:28:26;;;;;;;37.67;23.62;;;;;;;8.94;94.11;100627.06;1742007;82;25716;-56
2021/10/03 05:30:53;;;;;;;35.48;24.15;;;;;;;8.97;94.15;100634.03;1741889;82;26201;-57
2021/10/03 05:33:20;;;;;;;41.28;25.97;;;;;;;9.03;94.34;100631.27;1742006;82;25680;-56
2021/10/03 05:35:46;;;;;;;39.20;24.23;;;;;;;9.10;94.51;100633.05;1741933;81;27333;-56
2021/10/03 05:38:13;;;;;;;38.42;24.32;;;;;;;9.16;94.55;100634.05;1693701;83;25630;-57
2021/10/03 05:40:39;;;;;;;37.05;24.25;;;;;;;9.21;94.51;100628.31;1723845;82;25445;-56
2021/10/03 05:43:06;;;;;;;35.68;23.47;;;;;;;9.28;94.57;100632.27;1723585;83;25619;-57
2021/10/03 05:45:32;;;;;;;35.78;23.30;;;;;;;9.31;94.43;100626.81;1723119;83;25538;-56
2021/10/03 05:47:59;;;;;;;36.70;24.45;;;;;;;9.36;94.48;100626.73;1722061;83;27405;-57
2021/10/03 05:50:25;;;;;;;35.88;23.62;;;;;;;9.38;94.52;100620.52;1723584;83;25721;-56
2021/10/03 05:52:52;;;;;;;37.13;22.95;;;;;;;9.45;94.48;100633.63;1723570;82;25603;-55
2021/10/03 05:55:18;;;;;;;37.35;23.35;;;;;;;9.49;94.46;100634.11;1723561;83;25643;-56
2021/10/03 05:57:45;;;;;;;37.38;23.40;;;;;;;9.54;94.67;100632.68;1723387;83;25485;-56
2021/10/03 06:00:13;;;;;;;35.05;23.87;;;;;;;9.64;95.00;100634.98;1723545;83;27331;-56
2021/10/03 06:02:40;;;;;;;35.68;22.70;;;;;;;9.77;95.41;100625.31;1725083;82;25451;-56
2021/10/03 06:05:08;;;;;;;32.88;23.38;;;;;;;9.86;95.13;100629.75;1723636;82;25470;-56
2021/10/03 06:07:34;;;;;;;34.55;22.55;;;;;;;9.94;94.96;100622.06;1723760;82;25674;-56
2021/10/03 06:10:01;;;;;;;31.52;21.80;;;;;;;9.99;94.54;100621.42;1723283;83;25704;-57
2021/10/03 06:12:28;;;;;;;32.33;22.45;;;;;;;10.04;94.34;100621.33;1693836;83;27328;-57
2021/10/03 06:14:54;;;;;;;35.70;22.77;;;;;;;10.11;94.13;100622.30;1722807;83;25609;-57
2021/10/03 06:17:21;;;;;;;33.02;22.22;;;;;;;10.13;94.01;100609.31;1673598;85;25511;-58
2021/10/03 06:19:47;;;;;;;30.15;20.97;;;;;;;10.21;93.98;100623.46;1673135;85;25635;-58
2021/10/03 06:22:14;;;;;;;27.35;20.55;;;;;;;10.24;93.62;100616.67;1673286;85;25761;-57
2021/10/03 06:24:41;;;;;;;32.70;20.90;;;;;;;10.27;93.38;100618.22;1669587;85;27344;-58
2021/10/03 06:27:07;;;;;;;33.20;22.42;;;;;;;10.35;93.81;100615.42;1673224;85;25948;-57
2021/10/03 06:29:34;;;;;;;31.30;21.62;;;;;;;10.45;93.93;100613.87;1673314;85;25658;-57
2021/10/03 06:32:01;;;;;;;30.90;21.30;;;;;;;10.53;93.62;100613.71;1673357;85;25701;-59
2021/10/03 06:34:27;;;;;;;30.30;21.15;;;;;;;10.60;93.62;100614.11;1673316;85;25752;-57
2021/10/03 06:36:53;;;;;;;28.92;20.80;;;;;;;10.72;93.70;100620.36;1671900;85;27595;-57
2021/10/03 06:39:20;;;;;;;30.52;20.90;;;;;;;10.80;93.48;100625.08;1649658;86;25592;-57
2021/10/03 06:41:47;;;;;;;30.20;21.87;;;;;;;10.88;92.90;100623.58;1679031;83;25580;-57
2021/10/03 06:44:16;;;;;;;29.98;20.48;;;;;;;10.97;93.41;100623.10;1716237;83;26236;-56
2021/10/03 06:46:43;;;;;;;32.17;20.08;;;;;;;11.18;94.23;100619.95;1716550;83;25701;-56
2021/10/03 06:49:09;;;;;;;29.82;20.10;;;;;;;11.35;93.41;100622.01;1738791;82;27385;-57
2021/10/03 06:51:37;;;;;;;28.17;20.62;;;;;;;11.53;93.35;100619.69;1739313;82;25655;-56
2021/10/03 06:54:04;;;;;;;30.43;19.95;;;;;;;11.77;93.76;100624.80;1755416;81;25653;-57
2021/10/03 06:56:31;;;;;;;29.07;19.25;;;;;;;12.07;93.77;100626.54;1739457;82;25663;-56
2021/10/03 06:58:57;;;;;;;28.20;18.27;;;;;;;12.36;94.17;100619.83;1760764;81;25541;-56
2021/10/03 07:01:24;;;;;;;24.87;19.50;;;;;;;12.60;92.62;100626.21;1760692;81;27383;-57
2021/10/03 07:03:51;;;;;;;27.85;18.45;;;;;;;12.87;92.56;100626.53;1760622;81;25909;-56
2021/10/03 07:06:18;;;;;;;25.92;18.00;;;;;;;13.09;90.83;100631.58;1760734;81;25491;-56
2021/10/03 07:08:44;;;;;;;26.95;18.67;;;;;;;13.20;89.41;100636.16;1760616;81;25690;-57
2021/10/03 07:11:11;;;;;;;25.02;16.93;;;;;;;13.39;89.97;100639.95;1760709;81;25515;-57
2021/10/03 07:13:37;;;;;;;24.65;17.77;;;;;;;13.69;90.31;100640.91;1760663;81;27314;-56
2021/10/03 07:16:06;;;;;;;26.42;17.60;;;;;;;13.90;88.60;100643.75;1712198;82;25570;-57
2021/10/03 07:18:33;;;;;;;29.18;16.73;;;;;;;14.06;87.15;100629.64;1706463;83;25653;-56
2021/10/03 07:20:59;;;;;;;24.52;17.02;;;;;;;14.17;85.99;100630.91;1731706;82;25665;-56
2021/10/03 07:23:28;;;;;;;26.35;17.23;;;;;;;14.27;85.57;100641.97;1719579;83;25639;-56
2021/10/03 07:25:54;;;;;;;27.40;19.05;;;;;;;14.46;85.89;100629.36;1719379;83;27529;-56
2021/10/03 07:28:23;;;;;;;24.95;16.93;;;;;;;14.75;85.79;100633.48;1719458;83;25448;-57
2021/10/03 07:30:51;;;;;;;19.57;15.77;;;;;;;15.22;83.88;100631.73;1719817;83;25707;-57
2021/10/03 07:33:19;;;;;;;20.80;15.43;;;;;;;15.60;82.58;100629.45;1719495;83;25594;-57
2021/10/03 07:35:47;;;;;;;19.15;15.13;;;;;;;15.87;82.51;100626.73;1719609;83;25629;-55
2021/10/03 07:38:14;;;;;;;23.83;15.32;;;;;;;16.36;82.91;100628.20;1709820;83;27512;-57
2021/10/03 07:40:43;;;;;;;23.65;15.40;;;;;;;16.83;81.92;100637.86;1714654;83;25603;-55
2021/10/03 07:43:10;;;;;;;22.27;15.43;;;;;;;17.22;80.76;100636.91;1715582;83;25533;-56
2021/10/03 07:45:37;;;;;;;18.85;13.88;;;;;;;17.65;79.54;100640.08;1685203;85;25635;-56
2021/10/03 07:48:04;;;;;;;24.10;14.53;;;;;;;17.96;77.27;100638.01;1715449;83;25492;-57
2021/10/03 07:50:31;;;;;;;21.93;13.98;;;;;;;18.10;76.24;100634.88;1709123;83;27339;-55
2021/10/03 07:52:57;;;;;;;18.05;13.72;;;;;;;18.31;74.48;100633.24;1713347;83;26258;-55
2021/10/03 07:55:28;;;;;;;17.70;14.07;;;;;;;18.50;75.25;100627.63;1747662;81;25668;-55
2021/10/03 07:57:52;;;;;;;16.65;13.15;;;;;;;18.73;72.79;100631.33;1753692;81;25693;-57
2021/10/03 08:00:19;;;;;;;18.23;12.35;;;;;;;18.82;72.94;100631.13;1754255;81;25632;-57
2021/10/03 08:02:45;;;;;;;20.00;13.25;;;;;;;19.00;73.54;100633.73;1754180;81;27328;-55
2021/10/03 08:05:12;;;;;;;18.57;14.00;;;;;;;19.17;71.72;100632.53;1754089;81;25668;-55
2021/10/03 08:07:39;;;;;;;17.77;12.58;;;;;;;19.33;72.28;100632.45;1754187;81;25498;-55
2021/10/03 08:10:07;;;;;;;17.25;12.88;;;;;;;19.36;71.18;100625.47;1754119;81;25621;-57
2021/10/03 08:12:34;;;;;;;21.90;13.50;;;;;;;19.63;70.70;100626.96;1753592;81;25634;-56
2021/10/03 08:15:01;;;;;;;19.12;13.48;;;;;;;19.90;69.71;100635.56;1754184;81;28033;-55
2021/10/03 08:17:27;;;;;;;19.45;13.15;;;;;;;19.98;68.59;100623.34;1754146;81;25683;-57
2021/10/03 08:19:54;;;;;;;17.55;13.10;;;;;;;19.93;67.98;100620.31;1754181;81;25526;-57
2021/10/03 08:22:21;;;;;;;22.27;14.85;;;;;;;20.12;68.33;100624.95;1754188;81;25560;-56
2021/10/03 08:24:48;;;;;;;17.17;12.43;;;;;;;20.48;69.01;100617.30;1754315;81;25698;-57
2021/10/03 08:27:14;;;;;;;24.32;12.55;;;;;;;20.89;67.63;100619.73;1754202;81;27322;-56
2021/10/03 08:29:42;;;;;;;17.62;13.25;;;;;;;21.17;65.32;100625.98;1754092;81;25823;-58
2021/10/03 08:32:10;;;;;;;15.23;12.58;;;;;;;21.19;64.49;100620.90;1754480;81;25696;-58
2021/10/03 08:34:37;;;;;;;17.73;12.05;;;;;;;21.35;64.68;100617.38;1754103;81;25659;-56
2021/10/03 08:37:04;;;;;;;16.80;12.13;;;;;;;21.61;62.44;100633.63;1753846;81;25688;-56
2021/10/03 08:39:31;;;;;;;13.90;11.53;;;;;;;21.61;60.90;100627.53;1752066;81;27968;-56
2021/10/03 08:41:57;;;;;;;16.27;10.90;;;;;;;21.42;60.53;100620.80;1751944;81;25547;-58
2021/10/03 08:44:27;;;;;;;21.52;11.73;;;;;;;21.60;61.98;100620.42;1752019;81;25466;-57
2021/10/03 08:46:52;;;;;;;14.53;11.88;;;;;;;21.93;60.27;100619.39;1751858;81;25637;-57
2021/10/03 08:49:19;;;;;;;17.52;11.88;;;;;;;21.78;58.83;100612.97;1752061;81;25595;-57
2021/10/03 08:51:48;;;;;;;19.07;11.53;;;;;;;21.85;59.31;100611.66;1727283;81;27200;-57
2021/10/03 08:54:18;;;;;;;17.10;11.60;;;;;;;22.03;59.32;100623.42;1752031;81;25766;-57
2021/10/03 08:56:48;;;;;;;16.32;12.00;;;;;;;22.20;59.14;100613.14;1752015;81;25453;-57
2021/10/03 08:59:15;;;;;;;16.73;11.30;;;;;;;22.58;58.84;100618.02;1751976;81;25621;-57
2021/10/03 09:01:52;;;;;;;18.67;11.55;;;;;;;22.75;58.01;100604.92;1752031;81;25647;-58
2021/10/03 09:04:37;;;;;;;14.58;11.25;;;;;;;22.92;56.63;100619.21;1752057;81;27485;-56
2021/10/03 09:07:14;;;;;;;14.60;10.75;;;;;;;22.94;56.71;100617.64;1751965;81;25602;-56
2021/10/03 09:09:58;;;;;;;15.30;11.78;;;;;;;23.10;55.48;100604.96;1752041;81;25464;-56
2021/10/03 09:12:33;;;;;;;13.75;10.35;;;;;;;23.20;55.08;100601.24;1717339;83;26191;-57
2021/10/03 09:15:05;;;;;;;14.13;10.30;;;;;;;23.13;53.71;100595.10;1694313;83;25726;-57
2021/10/03 09:17:32;;;;;;;16.35;10.30;;;;;;;23.17;54.31;100596.50;1703113;83;27312;-59
2021/10/03 09:20:10;;;;;;;12.95;10.72;;;;;;;23.34;53.71;100593.01;1703389;83;25697;-57
2021/10/03 09:23:08;;;;;;;12.70;9.95;;;;;;;23.41;53.56;100598.58;1703611;83;25551;-56
2021/10/03 09:25:50;;;;;;;16.73;11.25;;;;;;;23.44;52.82;100588.71;1703363;84;26179;-57
2021/10/03 09:28:33;;;;;;;18.05;9.98;;;;;;;23.95;54.38;100592.39;1703470;83;25655;-56
2021/10/03 09:31:10;;;;;;;12.33;10.25;;;;;;;24.28;52.37;100582.13;1703436;83;27207;-56
2021/10/03 09:33:51;;;;;;;13.22;9.55;;;;;;;24.28;51.39;100579.36;1703398;84;25742;-58
2021/10/03 09:36:32;;;;;;;12.47;9.98;;;;;;;24.58;51.51;100570.67;1703642;83;25838;-58
2021/10/03 09:39:03;;;;;;;13.03;9.65;;;;;;;24.70;49.52;100571.63;1703387;83;25936;-57
2021/10/03 09:41:35;;;;;;;13.13;10.13;;;;;;;24.65;46.34;100572.03;1703602;83;25721;-57
2021/10/03 09:44:10;;;;;;;14.05;9.25;;;;;;;24.56;47.47;100571.66;1702851;83;27325;-58
2021/10/03 09:46:45;;;;;;;13.72;10.50;;;;;;;24.17;46.97;100576.02;1698805;83;25721;-57
2021/10/03 09:49:18;;;;;;;11.20;9.35;;;;;;;24.03;48.18;100571.28;1724015;83;25759;-57
2021/10/03 09:51:49;;;;;;;14.13;9.98;;;;;;;24.33;48.80;100570.67;1723914;83;26616;-56
2021/10/03 09:54:18;;;;;;;15.55;10.40;;;;;;;24.38;48.06;100566.13;1729144;81;25635;-58
2021/10/03 09:56:48;;;;;;;12.33;9.40;;;;;;;24.40;46.03;100558.24;1752009;81;27320;-58
2021/10/03 09:59:15;;;;;;;14.95;9.65;;;;;;;24.24;46.53;100567.71;1751918;81;25628;-57
2021/10/03 10:01:44;;;;;;;11.80;10.10;;;;;;;24.26;45.84;100566.53;1751976;81;25668;-57
2021/10/03 10:04:14;;;;;;;13.88;9.33;;;;;;;24.39;46.85;100571.86;1751980;81;25657;-57
2021/10/03 10:06:44;;;;;;;13.18;9.15;;;;;;;24.57;47.40;100562.20;1751780;81;25494;-57
2021/10/03 10:09:20;;;;;;;15.15;9.58;;;;;;;24.98;46.08;100569.97;1751993;81;28092;-58
2021/10/03 10:12:10;;;;;;;13.13;9.88;;;;;;;24.78;45.65;100571.02;1751964;81;25695;-56
2021/10/03 10:14:45;;;;;;;16.80;9.48;;;;;;;24.56;42.71;100557.23;1751929;81;25621;-58
2021/10/03 10:17:38;;;;;;;12.53;9.38;;;;;;;24.39;45.15;100564.95;1752002;81;25610;-56
2021/10/03 10:20:24;;;;;;;12.80;9.55;;;;;;;24.49;43.62;100581.33;1752023;81;25553;-56
2021/10/03 10:23:07;;;;;;;10.40;8.90;;;;;;;24.42;45.25;100571.07;1723922;82;28163;-56
2021/10/03 10:25:55;;;;;;;12.00;8.73;;;;;;;24.47;45.93;100555.46;1703971;83;25668;-56
2021/10/03 10:28:33;;;;;;;14.53;9.15;;;;;;;24.48;45.82;100561.17;1704092;83;25648;-55
2021/10/03 10:31:08;;;;;;;14.18;8.85;;;;;;;24.69;46.64;100555.42;1724030;82;25775;-56
2021/10/03 10:34:04;;;;;;;17.37;10.03;;;;;;;25.27;46.32;100543.59;1704248;83;25519;-56
2021/10/03 10:36:34;;;;;;;15.50;9.08;;;;;;;25.57;45.38;100542.98;1703498;83;27427;-57
2021/10/03 10:39:14;;;;;;;16.25;9.03;;;;;;;25.83;43.87;100544.98;1720714;82;25704;-56
2021/10/03 10:41:48;;;;;;;11.25;9.05;;;;;;;25.90;44.17;100542.95;1719712;83;25714;-57
2021/10/03 10:44:33;;;;;;;15.15;8.73;;;;;;;25.70;41.63;100534.39;1719683;83;25588;-57
2021/10/03 10:47:09;;;;;;;14.58;9.43;;;;;;;25.25;38.85;100532.88;1719813;83;25737;-56
2021/10/03 10:49:44;;;;;;;11.75;9.30;;;;;;;24.89;42.25;100525.33;1719804;83;28019;-56
2021/10/03 10:52:25;;;;;;;10.48;8.85;;;;;;;24.60;41.62;100517.94;1719733;83;25723;-56
2021/10/03 10:55:12;;;;;;;11.75;8.23;;;;;;;24.40;42.63;100515.40;1719772;83;25558;-58
2021/10/03 10:58:02;;;;;;;15.43;8.63;;;;;;;24.22;42.74;100525.88;1719747;83;25644;-56
2021/10/03 11:00:31;;;;;;;15.68;9.20;;;;;;;24.00;40.50;100516.81;1743800;81;25746;-57
2021/10/03 11:03:04;;;;;;;12.45;8.90;;;;;;;23.65;43.26;100524.45;1724558;81;27222;-57
2021/10/03 11:05:42;;;;;;;11.25;8.28;;;;;;;23.78;43.89;100502.78;1686206;83;25703;-57
2021/10/03 11:08:12;;;;;;;10.27;8.67;;;;;;;23.92;42.95;100516.61;1755704;81;25483;-56
2021/10/03 11:11:00;;;;;;;13.05;9.23;;;;;;;23.65;43.05;100514.80;1755501;81;27780;-57
2021/10/03 11:13:49;;;;;;;12.10;9.05;;;;;;;23.52;44.27;100517.16;1755747;81;25604;-58
2021/10/03 11:16:43;;;;;;;13.32;8.28;;;;;;;23.57;43.31;100515.99;1755618;81;27673;-57
2021/10/03 11:19:14;;;;;;;11.03;8.60;;;;;;;23.55;44.05;100507.29;1755564;81;25644;-57
2021/10/03 11:21:49;;;;;;;10.25;8.40;;;;;;;23.81;44.50;100502.81;1755651;81;25640;-56
2021/10/03 11:24:25;;;;;;;10.95;8.53;;;;;;;23.90;44.25;100509.31;1754728;81;25625;-56